sensor_id;sensor_type;location;lat;lon;timestamp;P1;durP1;ratioP1;P2;durP2;ratioP2
26872;SDS011;14445;53.056;4.804;2022-08-01T00:01:12;3.78;;;1.95;;
26872;SDS011;14445;53.056;4.804;2022-08-01T00:03:37;2.10;;;1.80;;
26872;SDS011;14445;53.056;4.804;2022-08-01T00:06:03;2.10;;;1.80;;
26872;SDS011;14445;53.056;4.804;2022-08-01T00:08:28;2.58;;;2.00;;
26872;SDS011;14445;53.056;4.804;2022-08-01T00:10:54;3.58;;;2.15;;
26872;SDS011;14445;53.056;4.804;2022-08-01T00:13:19;3.63;;;2.60;;
26872;SDS011;14445;53.056;4.804;2022-08-01T00:15:45;3.00;;;2.70;;
26872;SDS011;14445;53.056;4.804;2022-08-01T00:18:10;4.72;;;3.25;;
26872;SDS011;14445;53.056;4.804;2022-08-01T00:20:36;3.85;;;3.15;;
26872;SDS011;14445;53.056;4.804;2022-08-01T00:23:02;4.13;;;3.00;;
26872;SDS011;14445;53.056;4.804;2022-08-01T00:25:28;3.42;;;3.13;;
26872;SDS011;14445;53.056;4.804;2022-08-01T00:27:53;4.90;;;3.22;;
26872;SDS011;14445;53.056;4.804;2022-08-01T00:30:19;5.70;;;3.50;;
26872;SDS011;14445;53.056;4.804;2022-08-01T00:32:45;5.93;;;3.90;;
26872;SDS011;14445;53.056;4.804;2022-08-01T00:35:10;4.45;;;3.45;;
26872;SDS011;14445;53.056;4.804;2022-08-01T00:37:36;4.88;;;3.47;;
26872;SDS011;14445;53.056;4.804;2022-08-01T00:40:02;6.45;;;4.35;;
26872;SDS011;14445;53.056;4.804;2022-08-01T00:42:28;6.60;;;4.03;;
26872;SDS011;14445;53.056;4.804;2022-08-01T00:44:53;6.40;;;3.78;;
26872;SDS011;14445;53.056;4.804;2022-08-01T00:47:19;7.18;;;4.40;;
26872;SDS011;14445;53.056;4.804;2022-08-01T00:49:44;7.57;;;4.35;;
26872;SDS011;14445;53.056;4.804;2022-08-01T00:52:10;7.18;;;4.00;;
26872;SDS011;14445;53.056;4.804;2022-08-01T00:54:36;6.25;;;4.10;;
26872;SDS011;14445;53.056;4.804;2022-08-01T00:57:01;9.55;;;4.38;;
26872;SDS011;14445;53.056;4.804;2022-08-01T00:59:28;8.88;;;4.43;;
26872;SDS011;14445;53.056;4.804;2022-08-01T01:01:54;8.52;;;3.97;;
26872;SDS011;14445;53.056;4.804;2022-08-01T01:04:20;5.88;;;3.30;;
26872;SDS011;14445;53.056;4.804;2022-08-01T01:06:49;5.50;;;3.25;;
26872;SDS011;14445;53.056;4.804;2022-08-01T01:15:08;7.45;;;3.75;;
26872;SDS011;14445;53.056;4.804;2022-08-01T01:17:55;6.93;;;3.40;;
26872;SDS011;14445;53.056;4.804;2022-08-01T01:20:27;9.73;;;4.38;;
26872;SDS011;14445;53.056;4.804;2022-08-01T01:25:44;12.38;;;4.32;;
26872;SDS011;14445;53.056;4.804;2022-08-01T01:28:15;12.43;;;4.60;;
26872;SDS011;14445;53.056;4.804;2022-08-01T01:30:43;11.70;;;4.50;;
26872;SDS011;14445;53.056;4.804;2022-08-01T01:33:11;10.57;;;3.97;;
26872;SDS011;14445;53.056;4.804;2022-08-01T01:35:41;10.70;;;4.40;;
26872;SDS011;14445;53.056;4.804;2022-08-01T01:38:20;9.68;;;4.10;;
26872;SDS011;14445;53.056;4.804;2022-08-01T01:40:47;11.68;;;3.90;;
26872;SDS011;14445;53.056;4.804;2022-08-01T01:43:15;10.98;;;3.92;;
26872;SDS011;14445;53.056;4.804;2022-08-01T01:45:43;9.18;;;3.75;;
26872;SDS011;14445;53.056;4.804;2022-08-01T01:48:13;9.77;;;3.88;;
26872;SDS011;14445;53.056;4.804;2022-08-01T01:50:42;11.82;;;4.38;;
26872;SDS011;14445;53.056;4.804;2022-08-01T01:53:10;9.38;;;3.83;;
26872;SDS011;14445;53.056;4.804;2022-08-01T01:55:38;10.90;;;3.78;;
26872;SDS011;14445;53.056;4.804;2022-08-01T01:58:06;9.27;;;4.05;;
26872;SDS011;14445;53.056;4.804;2022-08-01T02:00:33;5.97;;;3.10;;
26872;SDS011;14445;53.056;4.804;2022-08-01T02:03:00;13.32;;;4.22;;
26872;SDS011;14445;53.056;4.804;2022-08-01T02:05:29;8.73;;;4.10;;
26872;SDS011;14445;53.056;4.804;2022-08-01T02:07:55;10.95;;;3.72;;
26872;SDS011;14445;53.056;4.804;2022-08-01T02:10:22;10.15;;;3.60;;
26872;SDS011;14445;53.056;4.804;2022-08-01T02:12:49;8.63;;;3.45;;
26872;SDS011;14445;53.056;4.804;2022-08-01T02:15:15;13.75;;;4.10;;
26872;SDS011;14445;53.056;4.804;2022-08-01T02:17:44;10.52;;;4.00;;
26872;SDS011;14445;53.056;4.804;2022-08-01T02:20:13;10.05;;;3.72;;
26872;SDS011;14445;53.056;4.804;2022-08-01T02:22:47;10.05;;;3.80;;
26872;SDS011;14445;53.056;4.804;2022-08-01T02:25:31;12.73;;;3.83;;
26872;SDS011;14445;53.056;4.804;2022-08-01T02:28:04;8.55;;;3.40;;
26872;SDS011;14445;53.056;4.804;2022-08-01T02:30:33;8.32;;;3.83;;
26872;SDS011;14445;53.056;4.804;2022-08-01T02:33:17;10.98;;;3.55;;
26872;SDS011;14445;53.056;4.804;2022-08-01T02:35:47;9.65;;;3.67;;
26872;SDS011;14445;53.056;4.804;2022-08-01T02:38:15;9.25;;;3.30;;
26872;SDS011;14445;53.056;4.804;2022-08-01T02:40:43;10.25;;;3.20;;
26872;SDS011;14445;53.056;4.804;2022-08-01T02:43:12;8.13;;;2.92;;
26872;SDS011;14445;53.056;4.804;2022-08-01T02:45:43;11.90;;;3.03;;
26872;SDS011;14445;53.056;4.804;2022-08-01T02:48:13;6.82;;;2.92;;
26872;SDS011;14445;53.056;4.804;2022-08-01T02:50:42;8.18;;;2.97;;
26872;SDS011;14445;53.056;4.804;2022-08-01T02:53:10;13.02;;;3.53;;
26872;SDS011;14445;53.056;4.804;2022-08-01T02:55:38;9.15;;;3.30;;
26872;SDS011;14445;53.056;4.804;2022-08-01T02:58:06;8.73;;;2.70;;
26872;SDS011;14445;53.056;4.804;2022-08-01T03:00:33;10.20;;;3.00;;
26872;SDS011;14445;53.056;4.804;2022-08-01T03:02:59;9.68;;;2.95;;
26872;SDS011;14445;53.056;4.804;2022-08-01T03:05:26;9.82;;;2.80;;
26872;SDS011;14445;53.056;4.804;2022-08-01T03:07:52;7.75;;;2.75;;
26872;SDS011;14445;53.056;4.804;2022-08-01T03:10:20;11.48;;;3.10;;
26872;SDS011;14445;53.056;4.804;2022-08-01T03:12:47;8.80;;;3.10;;
26872;SDS011;14445;53.056;4.804;2022-08-01T03:15:14;8.77;;;2.72;;
26872;SDS011;14445;53.056;4.804;2022-08-01T03:17:42;9.50;;;2.65;;
26872;SDS011;14445;53.056;4.804;2022-08-01T03:20:11;12.10;;;3.10;;
26872;SDS011;14445;53.056;4.804;2022-08-01T03:22:38;7.80;;;2.80;;
26872;SDS011;14445;53.056;4.804;2022-08-01T03:25:05;9.65;;;2.88;;
26872;SDS011;14445;53.056;4.804;2022-08-01T03:27:32;9.32;;;2.80;;
26872;SDS011;14445;53.056;4.804;2022-08-01T03:29:58;10.48;;;2.92;;
26872;SDS011;14445;53.056;4.804;2022-08-01T03:32:27;8.05;;;2.72;;
26872;SDS011;14445;53.056;4.804;2022-08-01T03:34:54;10.30;;;3.00;;
26872;SDS011;14445;53.056;4.804;2022-08-01T03:37:27;12.07;;;3.15;;
26872;SDS011;14445;53.056;4.804;2022-08-01T03:39:58;9.88;;;2.75;;
26872;SDS011;14445;53.056;4.804;2022-08-01T03:42:32;8.00;;;2.90;;
26872;SDS011;14445;53.056;4.804;2022-08-01T03:45:04;7.00;;;2.50;;
26872;SDS011;14445;53.056;4.804;2022-08-01T03:47:36;8.07;;;2.83;;
26872;SDS011;14445;53.056;4.804;2022-08-01T03:50:03;8.82;;;2.92;;
26872;SDS011;14445;53.056;4.804;2022-08-01T03:52:31;8.20;;;2.78;;
26872;SDS011;14445;53.056;4.804;2022-08-01T03:54:59;8.27;;;2.50;;
26872;SDS011;14445;53.056;4.804;2022-08-01T03:57:30;9.82;;;2.78;;
26872;SDS011;14445;53.056;4.804;2022-08-01T03:59:57;8.00;;;2.40;;
26872;SDS011;14445;53.056;4.804;2022-08-01T04:02:23;6.68;;;2.30;;
26872;SDS011;14445;53.056;4.804;2022-08-01T04:04:51;6.60;;;2.30;;
26872;SDS011;14445;53.056;4.804;2022-08-01T04:07:24;8.20;;;2.33;;
26872;SDS011;14445;53.056;4.804;2022-08-01T04:09:51;8.50;;;2.70;;
26872;SDS011;14445;53.056;4.804;2022-08-01T04:12:17;7.93;;;2.60;;
26872;SDS011;14445;53.056;4.804;2022-08-01T04:14:42;8.43;;;2.40;;
26872;SDS011;14445;53.056;4.804;2022-08-01T04:17:08;11.52;;;2.80;;
26872;SDS011;14445;53.056;4.804;2022-08-01T04:19:34;6.85;;;2.78;;
26872;SDS011;14445;53.056;4.804;2022-08-01T04:21:59;7.07;;;2.90;;
26872;SDS011;14445;53.056;4.804;2022-08-01T04:24:25;6.30;;;2.47;;
26872;SDS011;14445;53.056;4.804;2022-08-01T04:26:54;4.82;;;2.22;;
26872;SDS011;14445;53.056;4.804;2022-08-01T04:29:21;7.22;;;2.40;;
26872;SDS011;14445;53.056;4.804;2022-08-01T04:31:48;9.32;;;2.83;;
26872;SDS011;14445;53.056;4.804;2022-08-01T04:34:16;8.38;;;2.40;;
26872;SDS011;14445;53.056;4.804;2022-08-01T04:36:45;5.13;;;2.05;;
26872;SDS011;14445;53.056;4.804;2022-08-01T04:39:12;9.90;;;2.38;;
26872;SDS011;14445;53.056;4.804;2022-08-01T04:41:40;7.18;;;2.40;;
26872;SDS011;14445;53.056;4.804;2022-08-01T04:44:07;6.93;;;2.25;;
26872;SDS011;14445;53.056;4.804;2022-08-01T04:46:33;8.35;;;2.60;;
26872;SDS011;14445;53.056;4.804;2022-08-01T04:49:02;6.22;;;2.60;;
26872;SDS011;14445;53.056;4.804;2022-08-01T04:51:30;6.85;;;2.40;;
26872;SDS011;14445;53.056;4.804;2022-08-01T04:53:56;4.35;;;2.20;;
26872;SDS011;14445;53.056;4.804;2022-08-01T04:56:23;4.78;;;2.10;;
26872;SDS011;14445;53.056;4.804;2022-08-01T04:58:48;6.95;;;2.35;;
26872;SDS011;14445;53.056;4.804;2022-08-01T05:01:34;9.63;;;2.85;;
26872;SDS011;14445;53.056;4.804;2022-08-01T05:04:00;7.90;;;2.70;;
26872;SDS011;14445;53.056;4.804;2022-08-01T05:06:25;6.13;;;2.05;;
26872;SDS011;14445;53.056;4.804;2022-08-01T05:08:51;8.50;;;2.67;;
26872;SDS011;14445;53.056;4.804;2022-08-01T05:11:16;6.60;;;2.45;;
26872;SDS011;14445;53.056;4.804;2022-08-01T05:13:42;8.60;;;2.60;;
26872;SDS011;14445;53.056;4.804;2022-08-01T05:16:07;7.82;;;2.67;;
26872;SDS011;14445;53.056;4.804;2022-08-01T05:18:33;4.97;;;1.95;;
26872;SDS011;14445;53.056;4.804;2022-08-01T05:20:58;5.05;;;2.00;;
26872;SDS011;14445;53.056;4.804;2022-08-01T05:23:24;5.53;;;2.38;;
26872;SDS011;14445;53.056;4.804;2022-08-01T05:25:50;6.35;;;2.10;;
26872;SDS011;14445;53.056;4.804;2022-08-01T05:28:15;6.13;;;2.58;;
26872;SDS011;14445;53.056;4.804;2022-08-01T05:30:41;5.30;;;2.30;;
26872;SDS011;14445;53.056;4.804;2022-08-01T05:33:06;5.80;;;2.22;;
26872;SDS011;14445;53.056;4.804;2022-08-01T05:35:32;7.00;;;2.50;;
26872;SDS011;14445;53.056;4.804;2022-08-01T05:37:57;7.53;;;2.47;;
26872;SDS011;14445;53.056;4.804;2022-08-01T05:40:23;7.15;;;2.42;;
26872;SDS011;14445;53.056;4.804;2022-08-01T05:42:48;10.55;;;3.10;;
26872;SDS011;14445;53.056;4.804;2022-08-01T05:45:14;8.45;;;2.70;;
26872;SDS011;14445;53.056;4.804;2022-08-01T05:47:39;7.45;;;2.40;;
26872;SDS011;14445;53.056;4.804;2022-08-01T05:50:05;8.02;;;2.58;;
26872;SDS011;14445;53.056;4.804;2022-08-01T05:52:30;8.32;;;2.50;;
26872;SDS011;14445;53.056;4.804;2022-08-01T05:54:56;8.00;;;2.75;;
26872;SDS011;14445;53.056;4.804;2022-08-01T05:57:21;6.47;;;2.25;;
26872;SDS011;14445;53.056;4.804;2022-08-01T05:59:47;8.52;;;2.60;;
26872;SDS011;14445;53.056;4.804;2022-08-01T06:02:12;10.40;;;2.60;;
26872;SDS011;14445;53.056;4.804;2022-08-01T06:04:38;6.00;;;2.38;;
26872;SDS011;14445;53.056;4.804;2022-08-01T06:07:04;8.07;;;3.13;;
26872;SDS011;14445;53.056;4.804;2022-08-01T06:09:29;9.43;;;2.60;;
26872;SDS011;14445;53.056;4.804;2022-08-01T06:11:55;9.18;;;2.50;;
26872;SDS011;14445;53.056;4.804;2022-08-01T06:14:21;6.93;;;2.17;;
26872;SDS011;14445;53.056;4.804;2022-08-01T06:16:46;8.50;;;2.55;;
26872;SDS011;14445;53.056;4.804;2022-08-01T06:19:12;7.00;;;2.60;;
26872;SDS011;14445;53.056;4.804;2022-08-01T06:21:37;6.07;;;2.50;;
26872;SDS011;14445;53.056;4.804;2022-08-01T06:24:03;9.98;;;2.78;;
26872;SDS011;14445;53.056;4.804;2022-08-01T06:26:29;8.20;;;2.50;;
26872;SDS011;14445;53.056;4.804;2022-08-01T06:28:56;5.15;;;2.10;;
26872;SDS011;14445;53.056;4.804;2022-08-01T06:31:21;8.10;;;2.60;;
26872;SDS011;14445;53.056;4.804;2022-08-01T06:33:47;10.27;;;2.42;;
26872;SDS011;14445;53.056;4.804;2022-08-01T06:36:12;9.18;;;2.80;;
26872;SDS011;14445;53.056;4.804;2022-08-01T06:38:38;7.53;;;2.40;;
26872;SDS011;14445;53.056;4.804;2022-08-01T06:41:03;6.25;;;2.40;;
26872;SDS011;14445;53.056;4.804;2022-08-01T06:43:29;9.25;;;2.65;;
26872;SDS011;14445;53.056;4.804;2022-08-01T06:45:56;7.10;;;2.50;;
26872;SDS011;14445;53.056;4.804;2022-08-01T06:48:21;7.85;;;2.10;;
26872;SDS011;14445;53.056;4.804;2022-08-01T06:50:47;7.70;;;2.40;;
26872;SDS011;14445;53.056;4.804;2022-08-01T06:53:13;4.70;;;1.85;;
26872;SDS011;14445;53.056;4.804;2022-08-01T06:55:38;5.63;;;2.17;;
26872;SDS011;14445;53.056;4.804;2022-08-01T06:58:04;6.80;;;2.40;;
26872;SDS011;14445;53.056;4.804;2022-08-01T07:00:29;5.78;;;2.20;;
26872;SDS011;14445;53.056;4.804;2022-08-01T07:02:56;4.65;;;1.83;;
26872;SDS011;14445;53.056;4.804;2022-08-01T07:05:23;6.03;;;2.17;;
26872;SDS011;14445;53.056;4.804;2022-08-01T07:07:49;7.28;;;2.38;;
26872;SDS011;14445;53.056;4.804;2022-08-01T07:10:15;5.90;;;2.25;;
26872;SDS011;14445;53.056;4.804;2022-08-01T07:12:41;5.18;;;2.10;;
26872;SDS011;14445;53.056;4.804;2022-08-01T07:15:07;7.03;;;2.30;;
26872;SDS011;14445;53.056;4.804;2022-08-01T07:17:37;4.25;;;2.00;;
26872;SDS011;14445;53.056;4.804;2022-08-01T07:20:04;7.53;;;2.40;;
26872;SDS011;14445;53.056;4.804;2022-08-01T07:22:31;8.35;;;2.33;;
26872;SDS011;14445;53.056;4.804;2022-08-01T07:24:57;4.97;;;1.98;;
26872;SDS011;14445;53.056;4.804;2022-08-01T07:27:22;6.97;;;2.00;;
26872;SDS011;14445;53.056;4.804;2022-08-01T07:29:48;6.47;;;2.28;;
26872;SDS011;14445;53.056;4.804;2022-08-01T07:32:13;9.93;;;2.42;;
26872;SDS011;14445;53.056;4.804;2022-08-01T07:34:39;7.30;;;2.28;;
26872;SDS011;14445;53.056;4.804;2022-08-01T07:37:04;8.65;;;2.40;;
26872;SDS011;14445;53.056;4.804;2022-08-01T07:39:30;8.00;;;2.42;;
26872;SDS011;14445;53.056;4.804;2022-08-01T07:41:55;3.20;;;1.80;;
26872;SDS011;14445;53.056;4.804;2022-08-01T07:44:21;4.47;;;1.98;;
26872;SDS011;14445;53.056;4.804;2022-08-01T07:46:46;4.43;;;2.00;;
26872;SDS011;14445;53.056;4.804;2022-08-01T07:49:12;4.45;;;1.77;;
26872;SDS011;14445;53.056;4.804;2022-08-01T07:51:37;6.03;;;2.15;;
26872;SDS011;14445;53.056;4.804;2022-08-01T07:54:03;7.30;;;2.20;;
26872;SDS011;14445;53.056;4.804;2022-08-01T07:56:28;6.90;;;2.58;;
26872;SDS011;14445;53.056;4.804;2022-08-01T07:58:54;6.88;;;2.25;;
26872;SDS011;14445;53.056;4.804;2022-08-01T08:01:19;6.10;;;2.03;;
26872;SDS011;14445;53.056;4.804;2022-08-01T08:03:45;9.20;;;2.40;;
26872;SDS011;14445;53.056;4.804;2022-08-01T08:06:11;5.45;;;2.15;;
26872;SDS011;14445;53.056;4.804;2022-08-01T08:08:36;5.57;;;2.25;;
26872;SDS011;14445;53.056;4.804;2022-08-01T08:11:02;8.88;;;2.55;;
26872;SDS011;14445;53.056;4.804;2022-08-01T08:13:27;5.97;;;2.25;;
26872;SDS011;14445;53.056;4.804;2022-08-01T08:15:53;5.10;;;2.10;;
26872;SDS011;14445;53.056;4.804;2022-08-01T08:18:19;6.75;;;2.10;;
26872;SDS011;14445;53.056;4.804;2022-08-01T08:20:44;5.05;;;1.80;;
26872;SDS011;14445;53.056;4.804;2022-08-01T08:23:10;5.88;;;2.00;;
26872;SDS011;14445;53.056;4.804;2022-08-01T08:25:54;4.68;;;1.98;;
26872;SDS011;14445;53.056;4.804;2022-08-01T08:28:20;6.80;;;2.00;;
26872;SDS011;14445;53.056;4.804;2022-08-01T08:30:46;5.13;;;2.05;;
26872;SDS011;14445;53.056;4.804;2022-08-01T08:33:11;5.45;;;1.90;;
26872;SDS011;14445;53.056;4.804;2022-08-01T08:35:38;6.00;;;1.98;;
26872;SDS011;14445;53.056;4.804;2022-08-01T08:38:06;4.57;;;2.05;;
26872;SDS011;14445;53.056;4.804;2022-08-01T08:40:31;5.18;;;1.90;;
26872;SDS011;14445;53.056;4.804;2022-08-01T08:43:00;5.35;;;2.10;;
26872;SDS011;14445;53.056;4.804;2022-08-01T08:45:28;3.45;;;1.70;;
26872;SDS011;14445;53.056;4.804;2022-08-01T08:47:54;5.32;;;2.08;;
26872;SDS011;14445;53.056;4.804;2022-08-01T08:50:21;5.43;;;2.05;;
26872;SDS011;14445;53.056;4.804;2022-08-01T08:52:48;6.40;;;2.03;;
26872;SDS011;14445;53.056;4.804;2022-08-01T08:55:16;6.15;;;2.10;;
26872;SDS011;14445;53.056;4.804;2022-08-01T08:57:43;5.43;;;2.00;;
26872;SDS011;14445;53.056;4.804;2022-08-01T09:00:09;7.68;;;2.35;;
26872;SDS011;14445;53.056;4.804;2022-08-01T09:02:39;6.93;;;2.25;;
26872;SDS011;14445;53.056;4.804;2022-08-01T09:05:09;4.82;;;1.65;;
26872;SDS011;14445;53.056;4.804;2022-08-01T09:07:35;6.88;;;2.15;;
26872;SDS011;14445;53.056;4.804;2022-08-01T09:10:01;5.05;;;1.80;;
26872;SDS011;14445;53.056;4.804;2022-08-01T09:12:27;6.45;;;2.13;;
26872;SDS011;14445;53.056;4.804;2022-08-01T09:14:53;6.63;;;2.13;;
26872;SDS011;14445;53.056;4.804;2022-08-01T09:17:18;8.05;;;2.05;;
26872;SDS011;14445;53.056;4.804;2022-08-01T09:19:54;5.43;;;1.98;;
26872;SDS011;14445;53.056;4.804;2022-08-01T09:22:21;5.65;;;1.95;;
26872;SDS011;14445;53.056;4.804;2022-08-01T09:25:05;5.63;;;2.25;;
26872;SDS011;14445;53.056;4.804;2022-08-01T09:27:36;5.85;;;1.92;;
26872;SDS011;14445;53.056;4.804;2022-08-01T09:30:13;4.88;;;1.83;;
26872;SDS011;14445;53.056;4.804;2022-08-01T09:35:28;4.97;;;1.90;;
26872;SDS011;14445;53.056;4.804;2022-08-01T09:38:11;6.32;;;2.10;;
26872;SDS011;14445;53.056;4.804;2022-08-01T09:40:48;3.22;;;1.67;;
26872;SDS011;14445;53.056;4.804;2022-08-01T09:43:22;5.93;;;1.95;;
26872;SDS011;14445;53.056;4.804;2022-08-01T09:45:49;6.32;;;1.80;;
26872;SDS011;14445;53.056;4.804;2022-08-01T09:48:15;5.30;;;2.00;;
26872;SDS011;14445;53.056;4.804;2022-08-01T09:50:42;4.57;;;1.80;;
26872;SDS011;14445;53.056;4.804;2022-08-01T09:53:09;6.05;;;2.00;;
26872;SDS011;14445;53.056;4.804;2022-08-01T09:55:36;5.18;;;1.70;;
26872;SDS011;14445;53.056;4.804;2022-08-01T09:58:02;5.28;;;1.85;;
26872;SDS011;14445;53.056;4.804;2022-08-01T10:00:29;4.53;;;1.77;;
26872;SDS011;14445;53.056;4.804;2022-08-01T10:02:55;6.53;;;2.08;;
26872;SDS011;14445;53.056;4.804;2022-08-01T10:05:29;4.13;;;1.73;;
26872;SDS011;14445;53.056;4.804;2022-08-01T10:07:57;5.63;;;1.95;;
26872;SDS011;14445;53.056;4.804;2022-08-01T10:10:23;3.55;;;1.67;;
26872;SDS011;14445;53.056;4.804;2022-08-01T10:12:49;4.25;;;1.95;;
26872;SDS011;14445;53.056;4.804;2022-08-01T10:15:17;6.43;;;2.17;;
26872;SDS011;14445;53.056;4.804;2022-08-01T10:17:47;5.65;;;1.83;;
26872;SDS011;14445;53.056;4.804;2022-08-01T10:20:20;5.68;;;1.80;;
26872;SDS011;14445;53.056;4.804;2022-08-01T10:22:48;2.88;;;1.50;;
26872;SDS011;14445;53.056;4.804;2022-08-01T10:25:16;3.38;;;1.60;;
26872;SDS011;14445;53.056;4.804;2022-08-01T10:27:44;3.97;;;1.60;;
26872;SDS011;14445;53.056;4.804;2022-08-01T10:30:15;4.63;;;1.60;;
26872;SDS011;14445;53.056;4.804;2022-08-01T10:32:41;5.13;;;1.70;;
26872;SDS011;14445;53.056;4.804;2022-08-01T10:35:08;3.75;;;1.67;;
26872;SDS011;14445;53.056;4.804;2022-08-01T10:37:34;3.95;;;1.58;;
26872;SDS011;14445;53.056;4.804;2022-08-01T10:40:00;3.60;;;1.40;;
26872;SDS011;14445;53.056;4.804;2022-08-01T10:42:27;4.78;;;1.80;;
26872;SDS011;14445;53.056;4.804;2022-08-01T10:44:53;5.85;;;1.88;;
26872;SDS011;14445;53.056;4.804;2022-08-01T10:47:23;4.25;;;1.60;;
26872;SDS011;14445;53.056;4.804;2022-08-01T10:49:58;2.92;;;1.50;;
26872;SDS011;14445;53.056;4.804;2022-08-01T10:52:31;3.20;;;1.40;;
26872;SDS011;14445;53.056;4.804;2022-08-01T10:55:03;3.00;;;1.48;;
26872;SDS011;14445;53.056;4.804;2022-08-01T11:00:16;2.63;;;1.27;;
26872;SDS011;14445;53.056;4.804;2022-08-01T11:02:44;4.00;;;1.50;;
26872;SDS011;14445;53.056;4.804;2022-08-01T11:05:23;3.28;;;1.60;;
26872;SDS011;14445;53.056;4.804;2022-08-01T11:07:53;2.97;;;1.20;;
26872;SDS011;14445;53.056;4.804;2022-08-01T11:12:48;4.38;;;1.50;;
26872;SDS011;14445;53.056;4.804;2022-08-01T11:17:40;3.17;;;1.33;;
26872;SDS011;14445;53.056;4.804;2022-08-01T11:20:16;3.63;;;1.50;;
26872;SDS011;14445;53.056;4.804;2022-08-01T11:25:27;4.50;;;1.65;;
26872;SDS011;14445;53.056;4.804;2022-08-01T11:28:18;4.20;;;1.40;;
26872;SDS011;14445;53.056;4.804;2022-08-01T11:30:45;4.38;;;1.50;;
26872;SDS011;14445;53.056;4.804;2022-08-01T11:33:16;3.65;;;1.38;;
26872;SDS011;14445;53.056;4.804;2022-08-01T11:38:35;2.72;;;1.25;;
26872;SDS011;14445;53.056;4.804;2022-08-01T11:41:25;3.38;;;1.35;;
26872;SDS011;14445;53.056;4.804;2022-08-01T11:44:03;3.40;;;1.50;;
26872;SDS011;14445;53.056;4.804;2022-08-01T11:54:39;2.05;;;1.10;;
26872;SDS011;14445;53.056;4.804;2022-08-01T11:59:43;2.88;;;1.45;;
26872;SDS011;14445;53.056;4.804;2022-08-01T12:04:49;3.80;;;1.30;;
26872;SDS011;14445;53.056;4.804;2022-08-01T12:07:21;2.55;;;1.15;;
26872;SDS011;14445;53.056;4.804;2022-08-01T12:09:48;3.92;;;1.38;;
26872;SDS011;14445;53.056;4.804;2022-08-01T12:12:20;2.28;;;1.20;;
26872;SDS011;14445;53.056;4.804;2022-08-01T12:14:51;2.70;;;1.20;;
26872;SDS011;14445;53.056;4.804;2022-08-01T12:17:20;3.97;;;1.35;;
26872;SDS011;14445;53.056;4.804;2022-08-01T12:19:52;3.25;;;1.38;;
26872;SDS011;14445;53.056;4.804;2022-08-01T12:22:17;3.05;;;1.40;;
26872;SDS011;14445;53.056;4.804;2022-08-01T12:24:47;4.85;;;1.40;;
26872;SDS011;14445;53.056;4.804;2022-08-01T12:27:12;2.17;;;1.25;;
26872;SDS011;14445;53.056;4.804;2022-08-01T12:29:53;3.47;;;1.30;;
26872;SDS011;14445;53.056;4.804;2022-08-01T12:32:26;1.90;;;1.10;;
26872;SDS011;14445;53.056;4.804;2022-08-01T12:35:02;2.13;;;1.10;;
26872;SDS011;14445;53.056;4.804;2022-08-01T12:37:43;3.45;;;1.40;;
26872;SDS011;14445;53.056;4.804;2022-08-01T12:42:45;2.83;;;1.33;;
26872;SDS011;14445;53.056;4.804;2022-08-01T12:45:13;2.22;;;1.30;;
26872;SDS011;14445;53.056;4.804;2022-08-01T12:47:40;2.90;;;1.20;;
26872;SDS011;14445;53.056;4.804;2022-08-01T12:50:17;2.20;;;1.10;;
26872;SDS011;14445;53.056;4.804;2022-08-01T12:52:44;3.83;;;1.33;;
26872;SDS011;14445;53.056;4.804;2022-08-01T12:55:24;5.82;;;1.75;;
26872;SDS011;14445;53.056;4.804;2022-08-01T12:58:02;4.00;;;1.60;;
26872;SDS011;14445;53.056;4.804;2022-08-01T13:00:30;6.15;;;1.33;;
26872;SDS011;14445;53.056;4.804;2022-08-01T13:03:06;3.15;;;1.40;;
26872;SDS011;14445;53.056;4.804;2022-08-01T13:08:09;4.05;;;1.50;;
26872;SDS011;14445;53.056;4.804;2022-08-01T13:10:39;2.42;;;1.20;;
26872;SDS011;14445;53.056;4.804;2022-08-01T13:13:06;3.17;;;1.50;;
26872;SDS011;14445;53.056;4.804;2022-08-01T13:15:32;4.38;;;1.30;;
26872;SDS011;14445;53.056;4.804;2022-08-01T13:18:00;3.22;;;1.38;;
26872;SDS011;14445;53.056;4.804;2022-08-01T13:20:46;3.28;;;1.42;;
26872;SDS011;14445;53.056;4.804;2022-08-01T13:25:49;4.22;;;1.58;;
26872;SDS011;14445;53.056;4.804;2022-08-01T13:28:20;3.78;;;1.67;;
26872;SDS011;14445;53.056;4.804;2022-08-01T13:30:55;4.55;;;1.30;;
26872;SDS011;14445;53.056;4.804;2022-08-01T13:33:25;4.30;;;1.50;;
26872;SDS011;14445;53.056;4.804;2022-08-01T13:35:53;2.70;;;1.17;;
26872;SDS011;14445;53.056;4.804;2022-08-01T13:38:20;2.72;;;1.20;;
26872;SDS011;14445;53.056;4.804;2022-08-01T13:41:07;2.67;;;1.20;;
26872;SDS011;14445;53.056;4.804;2022-08-01T13:43:33;2.80;;;1.30;;
26872;SDS011;14445;53.056;4.804;2022-08-01T13:46:00;3.08;;;1.40;;
26872;SDS011;14445;53.056;4.804;2022-08-01T13:48:28;3.92;;;1.40;;
26872;SDS011;14445;53.056;4.804;2022-08-01T13:50:54;5.20;;;1.60;;
26872;SDS011;14445;53.056;4.804;2022-08-01T13:53:19;3.40;;;1.30;;
26872;SDS011;14445;53.056;4.804;2022-08-01T13:55:45;3.72;;;1.40;;
26872;SDS011;14445;53.056;4.804;2022-08-01T13:58:10;2.83;;;1.13;;
26872;SDS011;14445;53.056;4.804;2022-08-01T14:00:36;2.95;;;1.55;;
26872;SDS011;14445;53.056;4.804;2022-08-01T14:03:01;3.85;;;1.35;;
26872;SDS011;14445;53.056;4.804;2022-08-01T14:05:28;1.75;;;1.00;;
26872;SDS011;14445;53.056;4.804;2022-08-01T14:07:53;2.58;;;1.20;;
26872;SDS011;14445;53.056;4.804;2022-08-01T14:10:19;1.95;;;1.10;;
26872;SDS011;14445;53.056;4.804;2022-08-01T14:12:44;2.28;;;0.88;;
26872;SDS011;14445;53.056;4.804;2022-08-01T14:15:10;1.52;;;0.80;;
26872;SDS011;14445;53.056;4.804;2022-08-01T14:17:35;1.30;;;0.90;;
26872;SDS011;14445;53.056;4.804;2022-08-01T14:20:01;1.33;;;0.90;;
26872;SDS011;14445;53.056;4.804;2022-08-01T14:22:29;2.92;;;1.20;;
26872;SDS011;14445;53.056;4.804;2022-08-01T14:24:54;3.10;;;0.98;;
26872;SDS011;14445;53.056;4.804;2022-08-01T14:27:20;2.60;;;1.23;;
26872;SDS011;14445;53.056;4.804;2022-08-01T14:29:45;2.47;;;1.33;;
26872;SDS011;14445;53.056;4.804;2022-08-01T14:32:11;2.45;;;1.20;;
26872;SDS011;14445;53.056;4.804;2022-08-01T14:34:37;2.38;;;1.27;;
26872;SDS011;14445;53.056;4.804;2022-08-01T14:37:02;2.88;;;1.27;;
26872;SDS011;14445;53.056;4.804;2022-08-01T14:39:28;2.65;;;1.25;;
26872;SDS011;14445;53.056;4.804;2022-08-01T14:41:53;2.03;;;1.10;;
26872;SDS011;14445;53.056;4.804;2022-08-01T14:44:19;2.58;;;1.10;;
26872;SDS011;14445;53.056;4.804;2022-08-01T14:46:44;3.83;;;1.10;;
26872;SDS011;14445;53.056;4.804;2022-08-01T14:49:10;3.10;;;1.25;;
26872;SDS011;14445;53.056;4.804;2022-08-01T14:51:35;2.92;;;1.27;;
26872;SDS011;14445;53.056;4.804;2022-08-01T14:54:02;3.45;;;1.50;;
26872;SDS011;14445;53.056;4.804;2022-08-01T14:56:29;2.05;;;1.20;;
26872;SDS011;14445;53.056;4.804;2022-08-01T14:58:54;1.52;;;1.00;;
26872;SDS011;14445;53.056;4.804;2022-08-01T15:01:20;1.40;;;0.90;;
26872;SDS011;14445;53.056;4.804;2022-08-01T15:03:45;2.67;;;1.15;;
26872;SDS011;14445;53.056;4.804;2022-08-01T15:06:12;2.88;;;1.10;;
26872;SDS011;14445;53.056;4.804;2022-08-01T15:08:38;3.03;;;1.10;;
26872;SDS011;14445;53.056;4.804;2022-08-01T15:11:04;3.05;;;1.20;;
26872;SDS011;14445;53.056;4.804;2022-08-01T15:13:30;2.70;;;1.10;;
26872;SDS011;14445;53.056;4.804;2022-08-01T15:15:55;2.75;;;1.30;;
26872;SDS011;14445;53.056;4.804;2022-08-01T15:18:21;2.08;;;1.00;;
26872;SDS011;14445;53.056;4.804;2022-08-01T15:20:47;1.55;;;0.90;;
26872;SDS011;14445;53.056;4.804;2022-08-01T15:23:12;1.60;;;1.10;;
26872;SDS011;14445;53.056;4.804;2022-08-01T15:25:38;2.95;;;1.23;;
26872;SDS011;14445;53.056;4.804;2022-08-01T15:28:04;2.13;;;1.13;;
26872;SDS011;14445;53.056;4.804;2022-08-01T15:30:29;2.08;;;1.10;;
26872;SDS011;14445;53.056;4.804;2022-08-01T15:32:55;1.40;;;0.90;;
26872;SDS011;14445;53.056;4.804;2022-08-01T15:35:20;3.38;;;1.20;;